Kezdőlap
METAR-TAF:

METAR-TAF

Repülőterek :

Monbetsu, Japán

földrajzi szélesség: 44-15N, földrajzi hosszúság: 143-32E, magasság: 6 m

Jelenlegi meteorológiai megfigyelések

A jelentés 13 órával és 38 perccel ezelõtt készült, 07:00 UTC
Különbözõ irányokból fújó szél 2 kt
Hőmérséklet 6°C
Páratartalom 93%
Légköri nyomás 1006 hPa
Látótávolság 10 km, vagy több
Kevés felhő 1100 lábon
Szakadozott felhőzet 1300 lábon

METAR: RJEB 290700Z VRB02KT 9999 FEW011 BKN013 06/05 Q1006

Idő: 05:38 (20:38 UTC)


TAF: hiányzik

Meteorológiai megfigyelések és előrejelzések több, mint 4000 repülőtéren (METAR és TAF jelentéseket).

A térképen piros és sárga pontok jelzik az elérhető meteorológiai állomásokat.

Mozgassa az egeret a pont fölött, hogy megjelenjen az állomás neve.

Azután kattintson az időjárási megfigyelések és előrejelzések megtekintéséhez.

A térkép megváltoztatása: kattintson a fekete keresztel jelölt zöld gombra ráközelítéshez, a vonallal jelölt zöld gombra távolításhoz, vagy a zöld nyilakra a szomszédos térképek eléréséhez.


METAR-TAF: